Time;durP1;ratioP1;P1;durP2;ratioP2;P2;SDS_P1;SDS_P2;PMS_P1;PMS_P2;Temp;Humidity;BMP_temperature;BMP_pressure;BME280_temperature;BME280_humidity;BME280_pressure;Samples;Min_cycle;Max_cycle;Signal;HPM_P1;HPM_P2
2024/01/28 00:01:46;;;;;;;8.33;4.70;;;;;1.00;102780.00;;;;5052392;27;20268;-67
2024/01/28 00:04:32;;;;;;;6.40;4.00;;;;;0.90;102765.00;;;;5090233;27;20224;-68
2024/01/28 00:07:19;;;;;;;8.27;3.80;;;;;0.90;102767.00;;;;5033103;27;20630;-68
2024/01/28 00:10:08;;;;;;;7.00;2.93;;;;;0.80;102764.00;;;;5070128;27;20295;-68
2024/01/28 00:12:54;;;;;;;4.40;3.43;;;;;0.90;102762.00;;;;5057887;27;20217;-69
2024/01/28 00:15:40;;;;;;;5.57;3.13;;;;;0.90;102751.00;;;;5080651;27;20220;-68
2024/01/28 00:18:27;;;;;;;4.70;3.80;;;;;0.90;102746.00;;;;5046445;27;20309;-69
2024/01/28 00:21:13;;;;;;;5.87;3.63;;;;;0.80;102756.00;;;;5059557;27;20340;-68
2024/01/28 00:24:02;;;;;;;5.53;3.07;;;;;0.90;102742.00;;;;5064925;28;20220;-69
2024/01/28 00:26:50;;;;;;;4.50;3.87;;;;;0.90;102743.00;;;;5053162;28;20213;-69
2024/01/28 00:29:36;;;;;;;5.73;3.83;;;;;0.90;102751.00;;;;5052588;27;20356;-69
2024/01/28 00:32:23;;;;;;;4.97;3.47;;;;;0.80;102755.00;;;;5088636;28;20797;-67
2024/01/28 00:35:09;;;;;;;4.23;2.83;;;;;1.00;102739.00;;;;5079700;28;20217;-67
2024/01/28 00:37:57;;;;;;;4.97;3.30;;;;;0.90;102738.00;;;;5080436;28;20706;-69
2024/01/28 00:40:44;;;;;;;9.37;4.20;;;;;0.90;102736.00;;;;5087641;28;20208;-68
2024/01/28 00:43:31;;;;;;;6.10;3.43;;;;;0.80;102732.00;;;;5088773;28;20225;-68
2024/01/28 00:46:18;;;;;;;5.80;3.77;;;;;0.80;102728.00;;;;5033656;27;20226;-69
2024/01/28 00:49:04;;;;;;;7.00;4.00;;;;;0.80;102727.00;;;;5073298;27;20303;-68
2024/01/28 00:51:51;;;;;;;4.30;3.03;;;;;0.70;102732.00;;;;5056055;27;20727;-66
2024/01/28 00:54:37;;;;;;;5.07;3.27;;;;;0.70;102726.00;;;;5039033;27;20725;-69
2024/01/28 00:57:23;;;;;;;6.53;3.10;;;;;0.70;102723.00;;;;5067386;27;20243;-68
2024/01/28 01:00:12;;;;;;;3.90;2.97;;;;;0.70;102722.00;;;;5088765;28;20211;-69
2024/01/28 01:02:59;;;;;;;5.13;2.97;;;;;0.70;102730.00;;;;5060036;27;20709;-69
2024/01/28 01:05:46;;;;;;;2.50;2.30;;;;;0.80;102736.00;;;;5087588;27;20228;-69
2024/01/28 01:08:32;;;;;;;4.40;3.07;;;;;0.80;102742.00;;;;5035544;27;20234;-69
2024/01/28 01:11:19;;;;;;;2.87;2.50;;;;;0.70;102746.00;;;;5066723;27;20225;-69
2024/01/28 01:14:05;;;;;;;5.83;3.67;;;;;0.70;102744.00;;;;5062746;28;20212;-68
2024/01/28 01:16:53;;;;;;;4.90;4.07;;;;;0.70;102738.00;;;;5056640;27;20226;-68
2024/01/28 01:19:39;;;;;;;4.67;3.00;;;;;0.60;102737.00;;;;5070227;28;20242;-69
2024/01/28 01:22:26;;;;;;;5.87;3.53;;;;;0.70;102746.00;;;;5019491;27;20289;-69
2024/01/28 01:25:14;;;;;;;5.63;3.43;;;;;0.60;102735.00;;;;5060747;28;20248;-67
2024/01/28 01:28:00;;;;;;;3.60;2.97;;;;;0.50;102737.00;;;;5036765;28;20331;-68
2024/01/28 01:30:46;;;;;;;4.00;3.63;;;;;0.50;102730.00;;;;5044586;27;20215;-69
2024/01/28 01:33:35;;;;;;;4.30;3.17;;;;;0.60;102724.00;;;;5066766;27;20220;-70
2024/01/28 01:36:21;;;;;;;4.70;4.03;;;;;0.50;102716.00;;;;5064001;28;20218;-68
2024/01/28 01:39:08;;;;;;;6.07;3.13;;;;;0.50;102711.00;;;;5035005;28;20245;-68
2024/01/28 01:41:54;;;;;;;10.10;3.63;;;;;0.50;102717.00;;;;5038503;27;20232;-68
2024/01/28 01:44:40;;;;;;;7.97;3.67;;;;;0.50;102702.00;;;;5065715;27;20216;-67
2024/01/28 01:47:27;;;;;;;8.03;3.83;;;;;0.50;102690.00;;;;5009787;28;20215;-69
2024/01/28 01:50:16;;;;;;;3.23;2.93;;;;;0.50;102699.00;;;;5086655;28;20245;-68
2024/01/28 01:53:05;;;;;;;2.30;2.17;;;;;0.50;102700.00;;;;5014044;27;20231;-68
2024/01/28 01:55:52;;;;;;;6.40;3.20;;;;;0.50;102695.00;;;;5039922;27;21012;-70
2024/01/28 01:58:38;;;;;;;6.30;3.00;;;;;0.50;102699.00;;;;5056270;27;20451;-70
2024/01/28 02:01:26;;;;;;;3.43;2.60;;;;;0.50;102695.00;;;;5059902;28;20598;-70
2024/01/28 02:04:13;;;;;;;3.60;2.83;;;;;0.40;102701.00;;;;5046366;27;20234;-70
2024/01/28 02:07:01;;;;;;;4.87;3.60;;;;;0.40;102699.00;;;;5053232;27;20208;-69
2024/01/28 02:09:47;;;;;;;3.47;2.67;;;;;0.50;102692.00;;;;5086939;28;20232;-70
2024/01/28 02:12:34;;;;;;;5.73;2.97;;;;;0.50;102700.00;;;;5087868;28;20517;-69
2024/01/28 02:15:20;;;;;;;6.33;3.70;;;;;0.50;102695.00;;;;5083860;28;20208;-69
2024/01/28 02:18:07;;;;;;;4.40;3.43;;;;;0.60;102698.00;;;;5082048;28;20224;-67
2024/01/28 02:20:53;;;;;;;6.73;3.37;;;;;0.60;102692.00;;;;5085568;28;20694;-69
2024/01/28 02:23:41;;;;;;;5.13;3.23;;;;;0.60;102684.00;;;;5076027;27;20302;-69
2024/01/28 02:26:28;;;;;;;4.53;3.97;;;;;0.60;102688.00;;;;5068823;28;20212;-68
2024/01/28 02:29:14;;;;;;;9.13;4.60;;;;;0.60;102684.00;;;;5064638;28;20233;-69
2024/01/28 02:32:00;;;;;;;6.87;3.40;;;;;0.70;102687.00;;;;5052030;27;20816;-68
2024/01/28 02:34:47;;;;;;;7.00;3.63;;;;;0.70;102679.00;;;;5064972;28;20206;-69
2024/01/28 02:37:33;;;;;;;4.43;3.43;;;;;0.50;102677.00;;;;5041449;28;20228;-69
2024/01/28 02:40:21;;;;;;;6.40;4.30;;;;;0.60;102671.00;;;;5055338;28;20358;-68
2024/01/28 02:43:07;;;;;;;5.07;2.70;;;;;0.60;102675.00;;;;5086397;28;20208;-68
2024/01/28 02:45:54;;;;;;;7.30;3.93;;;;;0.50;102674.00;;;;5053589;28;20224;-69
2024/01/28 02:48:40;;;;;;;8.80;3.37;;;;;0.50;102676.00;;;;5036951;28;20232;-69
2024/01/28 02:51:26;;;;;;;5.03;3.33;;;;;0.50;102665.00;;;;5035301;28;20223;-69
2024/01/28 02:54:13;;;;;;;6.87;3.27;;;;;0.60;102661.00;;;;5085287;28;20207;-68
2024/01/28 02:57:01;;;;;;;6.07;3.63;;;;;0.60;102659.00;;;;5037093;27;20231;-69
2024/01/28 02:59:47;;;;;;;6.57;3.80;;;;;0.60;102652.00;;;;5061473;28;20244;-70
2024/01/28 03:02:34;;;;;;;6.43;3.20;;;;;0.60;102652.00;;;;5036153;27;20218;-68
2024/01/28 03:05:20;;;;;;;4.53;3.00;;;;;0.60;102638.00;;;;5077090;28;20236;-70
2024/01/28 03:08:07;;;;;;;4.17;3.27;;;;;0.60;102650.00;;;;5045623;28;20242;-68
2024/01/28 03:10:53;;;;;;;3.87;3.33;;;;;0.60;102640.00;;;;5033127;28;20212;-68
2024/01/28 03:13:41;;;;;;;5.87;3.90;;;;;0.50;102645.00;;;;5061885;28;20223;-70
2024/01/28 03:16:27;;;;;;;5.50;4.73;;;;;0.50;102642.00;;;;5035255;28;20221;-70
2024/01/28 03:19:14;;;;;;;4.93;3.30;;;;;0.60;102644.00;;;;5078691;27;20245;-68
2024/01/28 03:22:01;;;;;;;4.63;3.27;;;;;0.60;102642.00;;;;5036942;27;20235;-68
2024/01/28 03:24:48;;;;;;;4.63;3.50;;;;;0.70;102642.00;;;;5051073;27;20220;-67
2024/01/28 03:27:35;;;;;;;9.30;5.03;;;;;0.70;102645.00;;;;5085643;28;20220;-70
2024/01/28 03:30:23;;;;;;;4.33;3.67;;;;;0.60;102632.00;;;;5042499;28;20247;-69
2024/01/28 03:33:09;;;;;;;3.33;3.00;;;;;0.70;102633.00;;;;5061495;27;20246;-69
2024/01/28 03:35:56;;;;;;;4.80;3.43;;;;;0.70;102623.00;;;;5036773;28;20299;-69
2024/01/28 03:38:43;;;;;;;6.27;3.07;;;;;0.60;102625.00;;;;5014705;28;20890;-69
2024/01/28 03:41:29;;;;;;;14.43;5.07;;;;;0.50;102629.00;;;;5051827;28;20606;-69
2024/01/28 03:44:22;;;;;;;5.77;3.90;;;;;0.50;102635.00;;;;5056498;27;20645;-68
2024/01/28 03:47:10;;;;;;;3.97;3.07;;;;;0.50;102620.00;;;;5077120;27;20238;-68
2024/01/28 03:49:56;;;;;;;6.30;4.03;;;;;0.40;102615.00;;;;5064539;28;20296;-69
2024/01/28 03:52:42;;;;;;;3.83;3.03;;;;;0.50;102624.00;;;;5046093;27;20232;-68
2024/01/28 03:55:29;;;;;;;3.73;3.20;;;;;0.50;102629.00;;;;5080424;28;20203;-70
2024/01/28 03:58:15;;;;;;;10.17;3.97;;;;;0.40;102616.00;;;;5053622;27;20220;-69
2024/01/28 04:01:03;;;;;;;4.23;3.10;;;;;0.40;102623.00;;;;5066471;27;20933;-68
2024/01/28 04:03:57;;;;;;;5.07;3.50;;;;;0.30;102625.00;;;;5070584;27;20220;-71
2024/01/28 04:06:44;;;;;;;5.37;2.90;;;;;0.30;102606.00;;;;5059902;28;20218;-69
2024/01/28 04:09:30;;;;;;;7.73;3.40;;;;;0.40;102611.00;;;;5040447;27;20223;-71
2024/01/28 04:12:17;;;;;;;4.37;3.33;;;;;0.30;102604.00;;;;5040603;27;20778;-70
2024/01/28 04:15:04;;;;;;;4.87;3.60;;;;;0.30;102606.00;;;;5036885;27;20215;-68
2024/01/28 04:17:50;;;;;;;5.20;3.40;;;;;0.30;102604.00;;;;5043553;27;20227;-70
2024/01/28 04:20:38;;;;;;;3.77;3.43;;;;;0.30;102601.00;;;;5047645;27;20357;-68
2024/01/28 04:23:24;;;;;;;3.33;2.53;;;;;0.30;102606.00;;;;5030357;28;20236;-69
2024/01/28 04:26:11;;;;;;;3.37;2.87;;;;;0.30;102593.00;;;;5052404;28;20286;-70
2024/01/28 04:28:57;;;;;;;3.70;3.30;;;;;0.30;102600.00;;;;5062713;27;20239;-69
2024/01/28 04:31:44;;;;;;;4.13;2.90;;;;;0.20;102595.00;;;;5060615;28;20347;-69
2024/01/28 04:34:30;;;;;;;5.13;4.13;;;;;0.20;102587.00;;;;5056540;28;20228;-69
2024/01/28 04:37:17;;;;;;;3.20;2.90;;;;;0.20;102587.00;;;;5056373;27;20253;-69
2024/01/28 04:40:05;;;;;;;9.13;3.47;;;;;0.20;102583.00;;;;5055611;27;20246;-69
2024/01/28 04:42:51;;;;;;;7.93;3.70;;;;;0.20;102574.00;;;;5046762;27;20297;-69
2024/01/28 04:45:38;;;;;;;3.63;3.23;;;;;0.10;102575.00;;;;5066473;28;20223;-70
2024/01/28 04:48:24;;;;;;;4.90;3.63;;;;;0.10;102571.00;;;;5069427;27;20237;-69
2024/01/28 04:51:11;;;;;;;3.93;3.10;;;;;0.10;102558.00;;;;5064924;28;20220;-69
2024/01/28 04:53:59;;;;;;;4.90;3.43;;;;;0.10;102562.00;;;;5053898;27;20386;-70
2024/01/28 04:56:45;;;;;;;3.50;2.77;;;;;0.10;102551.00;;;;5036722;27;20595;-66
2024/01/28 04:59:32;;;;;;;5.20;3.03;;;;;0.10;102548.00;;;;5039332;27;20375;-70
2024/01/28 05:02:18;;;;;;;14.80;3.10;;;;;0.10;102547.00;;;;5062681;28;20681;-68
2024/01/28 05:05:06;;;;;;;9.10;3.30;;;;;0.00;102536.00;;;;5040671;27;20932;-69
2024/01/28 05:07:52;;;;;;;5.07;3.20;;;;;0.10;102539.00;;;;5064210;27;20308;-68
2024/01/28 05:10:39;;;;;;;5.47;3.83;;;;;0.20;102540.00;;;;5035636;28;20869;-70
2024/01/28 05:13:26;;;;;;;4.67;3.00;;;;;0.10;102539.00;;;;4995046;28;20220;-68
2024/01/28 05:16:12;;;;;;;2.90;2.17;;;;;0.10;102535.00;;;;5073387;28;20397;-68
2024/01/28 05:19:01;;;;;;;4.30;3.43;;;;;0.10;102531.00;;;;5011210;27;20985;-69
2024/01/28 05:21:47;;;;;;;4.87;3.53;;;;;0.10;102533.00;;;;5082291;27;20223;-69
2024/01/28 05:24:34;;;;;;;7.30;2.97;;;;;0.10;102532.00;;;;5057568;27;20226;-67
2024/01/28 05:27:21;;;;;;;7.53;3.53;;;;;0.00;102521.00;;;;5063574;27;20283;-69
2024/01/28 05:30:09;;;;;;;3.17;2.60;;;;;0.00;102521.00;;;;5075443;27;20352;-68
2024/01/28 05:32:56;;;;;;;3.53;2.83;;;;;0.00;102526.00;;;;4995707;28;20629;-69
2024/01/28 05:35:43;;;;;;;5.43;3.33;;;;;0.00;102520.00;;;;5050153;27;20650;-69
2024/01/28 05:38:30;;;;;;;2.43;2.23;;;;;0.00;102521.00;;;;5069433;27;20230;-69
2024/01/28 05:41:16;;;;;;;4.20;3.13;;;;;-0.10;102515.00;;;;5057829;27;20226;-69
2024/01/28 05:44:04;;;;;;;4.57;3.43;;;;;0.00;102520.00;;;;5050520;27;20748;-69
2024/01/28 05:46:50;;;;;;;10.67;4.47;;;;;0.00;102517.00;;;;5083281;27;20222;-65
2024/01/28 05:49:36;;;;;;;3.50;3.20;;;;;0.00;102511.00;;;;5067062;28;20238;-68
2024/01/28 05:52:23;;;;;;;4.70;3.43;;;;;0.00;102512.00;;;;5073249;27;20218;-69
2024/01/28 05:55:10;;;;;;;3.47;3.03;;;;;-0.10;102512.00;;;;5051705;27;20220;-68
2024/01/28 05:57:56;;;;;;;4.43;3.97;;;;;-0.10;102519.00;;;;5101254;27;20298;-69
2024/01/28 06:00:44;;;;;;;3.53;3.07;;;;;-0.10;102512.00;;;;5041120;27;20413;-67
2024/01/28 06:03:32;;;;;;;3.97;3.10;;;;;-0.10;102522.00;;;;5040099;27;20370;-68
2024/01/28 06:06:18;;;;;;;8.30;3.57;;;;;-0.20;102511.00;;;;5053377;27;20287;-68
2024/01/28 06:09:05;;;;;;;4.67;3.00;;;;;-0.10;102508.00;;;;5080636;27;20235;-69
2024/01/28 06:11:51;;;;;;;4.57;2.77;;;;;-0.10;102512.00;;;;5063403;28;20294;-69
2024/01/28 06:14:38;;;;;;;4.33;3.87;;;;;-0.10;102510.00;;;;5064568;27;20214;-69
2024/01/28 06:17:26;;;;;;;5.53;3.57;;;;;-0.20;102512.00;;;;5039467;28;20218;-68
2024/01/28 06:20:13;;;;;;;5.87;4.00;;;;;-0.20;102508.00;;;;5014272;27;20341;-68
2024/01/28 06:22:59;;;;;;;3.53;2.57;;;;;-0.20;102511.00;;;;5054294;27;20216;-68
2024/01/28 06:25:46;;;;;;;5.27;3.33;;;;;-0.20;102515.00;;;;5041576;28;20219;-68
2024/01/28 06:28:32;;;;;;;5.30;4.17;;;;;-0.20;102513.00;;;;5059544;28;20276;-69
2024/01/28 06:31:20;;;;;;;5.30;3.53;;;;;-0.20;102510.00;;;;5046353;27;20751;-70
2024/01/28 06:34:08;;;;;;;4.47;3.07;;;;;-0.20;102506.00;;;;5029977;28;20362;-68
2024/01/28 06:36:54;;;;;;;4.07;3.50;;;;;-0.10;102502.00;;;;5036657;28;20218;-68
2024/01/28 06:39:41;;;;;;;3.83;2.87;;;;;-0.20;102501.00;;;;5024713;28;20230;-69
2024/01/28 06:42:29;;;;;;;4.40;2.90;;;;;-0.10;102501.00;;;;5070405;28;20265;-68
2024/01/28 06:45:16;;;;;;;3.43;2.80;;;;;-0.20;102514.00;;;;5045154;27;20256;-69
2024/01/28 06:48:02;;;;;;;5.73;3.57;;;;;-0.20;102509.00;;;;5062394;27;20305;-67
2024/01/28 06:50:50;;;;;;;5.83;3.10;;;;;-0.20;102508.00;;;;5039581;27;20215;-70
2024/01/28 06:53:37;;;;;;;2.97;2.23;;;;;-0.20;102506.00;;;;5034753;28;20219;-68
2024/01/28 06:56:23;;;;;;;2.83;2.37;;;;;-0.20;102515.00;;;;5043500;28;20222;-70
2024/01/28 06:59:09;;;;;;;5.63;2.50;;;;;-0.20;102518.00;;;;5052184;28;20232;-69
2024/01/28 07:01:56;;;;;;;4.33;2.50;;;;;-0.30;102517.00;;;;5015568;28;20235;-70
2024/01/28 07:04:42;;;;;;;5.97;2.77;;;;;-0.20;102506.00;;;;5045336;28;20234;-68
2024/01/28 07:07:30;;;;;;;6.57;3.33;;;;;-0.20;102506.00;;;;5045974;27;20866;-71
2024/01/28 07:10:16;;;;;;;4.33;3.10;;;;;-0.20;102503.00;;;;5053461;28;20235;-70
2024/01/28 07:13:03;;;;;;;3.13;2.43;;;;;-0.20;102498.00;;;;5062982;28;20588;-69
2024/01/28 07:15:50;;;;;;;3.77;3.07;;;;;-0.20;102495.00;;;;4983813;28;20238;-69
2024/01/28 07:18:37;;;;;;;5.37;3.00;;;;;-0.30;102493.00;;;;5011285;28;20241;-70
2024/01/28 07:21:23;;;;;;;5.23;2.63;;;;;-0.30;102491.00;;;;5051377;27;20274;-68
2024/01/28 07:24:11;;;;;;;3.53;2.83;;;;;-0.30;102478.00;;;;5064333;27;20233;-69
2024/01/28 07:26:58;;;;;;;3.00;2.70;;;;;-0.30;102481.00;;;;5067313;28;20327;-69
2024/01/28 07:29:44;;;;;;;3.03;2.63;;;;;-0.30;102481.00;;;;5065778;27;20238;-70
2024/01/28 07:32:31;;;;;;;4.47;3.73;;;;;-0.30;102476.00;;;;5069719;27;20288;-68
2024/01/28 07:35:17;;;;;;;6.20;3.23;;;;;-0.30;102468.00;;;;5053706;28;20215;-69
2024/01/28 07:38:04;;;;;;;6.10;3.70;;;;;-0.30;102473.00;;;;5038964;27;20800;-69
2024/01/28 07:40:52;;;;;;;3.33;2.43;;;;;-0.30;102463.00;;;;5066612;28;20224;-72
2024/01/28 07:43:38;;;;;;;4.60;3.53;;;;;-0.20;102462.00;;;;5046142;27;20213;-68
2024/01/28 07:46:25;;;;;;;8.77;3.70;;;;;-0.10;102454.00;;;;5059368;27;20294;-68
2024/01/28 07:49:12;;;;;;;5.23;3.33;;;;;-0.10;102462.00;;;;5047236;27;20227;-70
2024/01/28 07:51:58;;;;;;;8.27;4.63;;;;;0.00;102454.00;;;;5072427;27;20829;-68
2024/01/28 07:54:44;;;;;;;11.70;4.37;;;;;0.10;102465.00;;;;5064208;27;20218;-68
2024/01/28 07:57:32;;;;;;;6.07;4.23;;;;;0.10;102466.00;;;;5046249;27;20259;-68
2024/01/28 08:00:19;;;;;;;6.50;4.03;;;;;0.10;102452.00;;;;5067944;27;20212;-70
2024/01/28 08:03:05;;;;;;;4.40;3.67;;;;;0.20;102448.00;;;;5025488;27;20227;-69
2024/01/28 08:05:52;;;;;;;3.57;3.07;;;;;0.20;102460.00;;;;5057837;28;20742;-69
2024/01/28 08:08:38;;;;;;;4.10;2.77;;;;;0.30;102454.00;;;;5085104;27;20692;-68
2024/01/28 08:11:24;;;;;;;4.57;3.60;;;;;0.30;102462.00;;;;5042292;27;20228;-69
2024/01/28 08:14:12;;;;;;;6.03;2.93;;;;;0.30;102451.00;;;;5007138;28;20734;-70
2024/01/28 08:16:58;;;;;;;7.20;3.90;;;;;0.30;102453.00;;;;5000394;28;20245;-69
2024/01/28 08:19:45;;;;;;;3.50;3.20;;;;;0.40;102445.00;;;;5055773;27;20344;-69
2024/01/28 08:22:31;;;;;;;7.43;4.20;;;;;0.40;102451.00;;;;5040309;27;20605;-70
2024/01/28 08:25:17;;;;;;;3.90;3.17;;;;;0.50;102449.00;;;;5050575;27;20231;-70
2024/01/28 08:28:04;;;;;;;5.93;4.00;;;;;0.60;102446.00;;;;5042069;27;20399;-68
2024/01/28 08:30:52;;;;;;;5.90;2.83;;;;;0.60;102443.00;;;;5085159;27;20250;-69
2024/01/28 08:33:39;;;;;;;4.53;3.13;;;;;0.70;102449.00;;;;5084266;27;20215;-70
2024/01/28 08:36:25;;;;;;;6.10;3.40;;;;;0.70;102433.00;;;;5048711;27;20217;-70
2024/01/28 08:39:14;;;;;;;4.67;3.67;;;;;0.80;102438.00;;;;5087336;27;20596;-69
2024/01/28 08:42:00;;;;;;;5.73;4.07;;;;;0.90;102432.00;;;;5030633;27;20230;-71
2024/01/28 08:44:47;;;;;;;11.50;4.53;;;;;0.90;102432.00;;;;5095893;27;20201;-70
2024/01/28 08:47:34;;;;;;;4.80;3.47;;;;;1.00;102424.00;;;;5068823;27;20846;-70
2024/01/28 08:50:21;;;;;;;4.63;3.17;;;;;1.00;102415.00;;;;5074052;27;20215;-69
2024/01/28 08:53:07;;;;;;;13.60;5.00;;;;;1.10;102413.00;;;;5013023;28;20229;-70
2024/01/28 08:55:54;;;;;;;4.77;3.40;;;;;1.20;102423.00;;;;5059100;27;20222;-70
2024/01/28 08:58:40;;;;;;;3.37;2.97;;;;;1.30;102435.00;;;;5062643;28;20282;-70
2024/01/28 09:01:27;;;;;;;3.27;2.73;;;;;1.40;102430.00;;;;5053105;27;20871;-70
2024/01/28 09:04:14;;;;;;;4.20;3.30;;;;;1.50;102425.00;;;;5072193;27;20912;-69
2024/01/28 09:07:01;;;;;;;5.67;3.33;;;;;1.50;102421.00;;;;5063937;27;20574;-69
2024/01/28 09:09:47;;;;;;;5.83;2.73;;;;;1.60;102419.00;;;;5052809;27;20228;-70
2024/01/28 09:12:34;;;;;;;5.63;4.13;;;;;1.60;102423.00;;;;5058280;28;20227;-71
2024/01/28 09:15:20;;;;;;;4.70;3.17;;;;;1.70;102412.00;;;;5049602;28;20211;-70
2024/01/28 09:18:06;;;;;;;3.73;2.77;;;;;1.80;102415.00;;;;5078969;27;20299;-69
2024/01/28 09:20:54;;;;;;;6.13;3.63;;;;;1.90;102401.00;;;;5039210;27;20216;-70
2024/01/28 09:23:41;;;;;;;6.10;3.63;;;;;2.00;102406.00;;;;5099300;27;20695;-70
2024/01/28 09:26:27;;;;;;;4.77;3.47;;;;;2.10;102407.00;;;;5091845;27;20238;-71
2024/01/28 09:29:13;;;;;;;5.43;4.10;;;;;2.10;102403.00;;;;5085984;28;20311;-70
2024/01/28 09:32:00;;;;;;;4.93;3.50;;;;;2.30;102402.00;;;;5078348;28;20688;-70
2024/01/28 09:34:46;;;;;;;12.23;3.37;;;;;2.40;102398.00;;;;5091401;28;20234;-69
2024/01/28 09:37:34;;;;;;;8.10;3.13;;;;;2.50;102398.00;;;;5087299;28;20638;-70
2024/01/28 09:40:20;;;;;;;6.73;3.27;;;;;2.70;102402.00;;;;5080327;28;20231;-69
2024/01/28 09:43:14;;;;;;;5.17;3.37;;;;;2.80;102404.00;;;;5083373;28;20808;-68
2024/01/28 09:46:01;;;;;;;3.50;3.13;;;;;2.90;102409.00;;;;5087123;28;20224;-72
2024/01/28 09:48:48;;;;;;;7.87;3.60;;;;;3.00;102395.00;;;;5087516;28;20242;-70
2024/01/28 09:51:34;;;;;;;5.70;3.20;;;;;3.00;102409.00;;;;5088889;28;21031;-70
2024/01/28 09:54:22;;;;;;;5.57;3.43;;;;;3.20;102400.00;;;;5086685;28;20980;-70
2024/01/28 09:57:09;;;;;;;4.13;3.23;;;;;3.30;102391.00;;;;5082490;28;20296;-72
2024/01/28 09:59:56;;;;;;;4.90;3.00;;;;;3.50;102398.00;;;;5074965;28;20245;-71
2024/01/28 10:02:43;;;;;;;8.80;3.40;;;;;3.60;102391.00;;;;5083784;28;20758;-69
2024/01/28 10:05:31;;;;;;;4.40;3.33;;;;;3.80;102388.00;;;;5083238;28;20226;-69
2024/01/28 10:08:19;;;;;;;2.93;2.63;;;;;3.90;102394.00;;;;5083756;28;20302;-68
2024/01/28 10:11:06;;;;;;;5.57;3.33;;;;;4.00;102392.00;;;;5079495;28;20333;-68
2024/01/28 10:13:53;;;;;;;6.70;3.70;;;;;4.10;102378.00;;;;5075888;28;20297;-64
2024/01/28 10:16:40;;;;;;;10.93;4.67;;;;;4.30;102372.00;;;;5080398;28;20242;-67
2024/01/28 10:19:27;;;;;;;7.33;4.50;;;;;4.40;102370.00;;;;5082546;28;20436;-68
2024/01/28 10:22:14;;;;;;;12.70;5.47;;;;;4.50;102356.00;;;;5083022;28;20232;-69
2024/01/28 10:25:00;;;;;;;9.97;4.07;;;;;4.60;102368.00;;;;5074081;28;20581;-67
2024/01/28 10:27:49;;;;;;;4.07;2.80;;;;;4.70;102367.00;;;;5078290;28;20237;-68
2024/01/28 10:30:36;;;;;;;3.83;2.90;;;;;4.80;102365.00;;;;5080584;28;20713;-63
2024/01/28 10:33:23;;;;;;;4.40;2.60;;;;;5.00;102356.00;;;;5068035;28;20353;-71
2024/01/28 10:36:10;;;;;;;3.03;2.20;;;;;5.10;102353.00;;;;5077245;28;20231;-68
2024/01/28 10:39:05;;;;;;;9.47;2.73;;;;;5.20;102351.00;;;;5078554;28;20729;-64
2024/01/28 10:41:56;;;;;;;5.20;3.37;;;;;5.30;102360.00;;;;5082264;28;20393;-65
2024/01/28 10:44:47;;;;;;;7.00;3.30;;;;;5.40;102349.00;;;;5082477;28;20370;-65
2024/01/28 10:47:37;;;;;;;5.57;2.60;;;;;5.50;102350.00;;;;5081904;28;20305;-68
2024/01/28 10:50:28;;;;;;;5.40;3.20;;;;;5.60;102333.00;;;;5076560;28;20365;-66
2024/01/28 10:53:16;;;;;;;4.13;2.60;;;;;5.70;102341.00;;;;5083354;28;20230;-67
2024/01/28 10:56:05;;;;;;;3.70;2.87;;;;;5.80;102336.00;;;;5080139;28;20219;-67
2024/01/28 10:58:51;;;;;;;3.10;2.70;;;;;6.00;102325.00;;;;5090465;28;20245;-66
2024/01/28 11:01:40;;;;;;;4.33;2.37;;;;;6.10;102333.00;;;;5086537;28;20240;-67
2024/01/28 11:04:26;;;;;;;5.13;2.87;;;;;6.30;102327.00;;;;5086263;28;20710;-69
2024/01/28 11:07:13;;;;;;;4.73;3.20;;;;;6.40;102319.00;;;;5084814;28;20286;-65
2024/01/28 11:10:02;;;;;;;5.43;3.20;;;;;6.50;102317.00;;;;5061421;28;20722;-65
2024/01/28 11:12:50;;;;;;;4.50;2.53;;;;;6.50;102321.00;;;;5077971;28;20240;-65
2024/01/28 11:15:37;;;;;;;3.53;2.50;;;;;6.60;102325.00;;;;5080960;28;20236;-66
2024/01/28 11:18:30;;;;;;;5.20;2.90;;;;;6.80;102324.00;;;;5086046;28;20255;-65
2024/01/28 11:21:20;;;;;;;4.00;2.53;;;;;6.90;102322.00;;;;5080898;28;20310;-67
2024/01/28 11:24:09;;;;;;;3.87;3.23;;;;;7.00;102312.00;;;;5085210;28;20232;-65
2024/01/28 11:26:58;;;;;;;4.13;2.50;;;;;7.20;102323.00;;;;5085105;28;20855;-66
2024/01/28 11:29:47;;;;;;;5.20;2.73;;;;;7.40;102320.00;;;;5083517;28;20280;-68
2024/01/28 11:32:34;;;;;;;6.07;4.07;;;;;7.40;102313.00;;;;5083019;28;20233;-65
2024/01/28 11:35:23;;;;;;;4.90;3.07;;;;;7.50;102310.00;;;;5083867;28;20223;-65
2024/01/28 11:38:11;;;;;;;5.83;3.10;;;;;7.70;102302.00;;;;5080742;28;20230;-65
2024/01/28 11:40:59;;;;;;;4.43;3.03;;;;;7.80;102294.00;;;;5085674;27;20361;-65
2024/01/28 11:43:53;;;;;;;7.43;4.07;;;;;7.90;102292.00;;;;5081568;28;21194;-66
2024/01/28 11:46:40;;;;;;;6.23;3.23;;;;;8.10;102294.00;;;;5081848;28;20230;-66
2024/01/28 11:49:27;;;;;;;3.20;2.53;;;;;8.20;102292.00;;;;5081898;28;20365;-65
2024/01/28 11:52:17;;;;;;;3.90;2.60;;;;;8.30;102286.00;;;;5082945;28;20223;-66
2024/01/28 11:55:11;;;;;;;3.50;2.80;;;;;8.40;102286.00;;;;5076874;28;20441;-66
2024/01/28 11:57:57;;;;;;;8.27;2.63;;;;;8.40;102286.00;;;;5083543;28;20746;-66
2024/01/28 12:00:47;;;;;;;6.87;3.77;;;;;8.50;102290.00;;;;5082574;28;20367;-66
2024/01/28 12:03:33;;;;;;;7.67;3.30;;;;;8.70;102286.00;;;;5093998;28;20238;-66
2024/01/28 12:06:21;;;;;;;5.17;3.23;;;;;8.80;102283.00;;;;5083435;28;20311;-65
2024/01/28 12:09:10;;;;;;;9.00;3.40;;;;;8.90;102284.00;;;;5074780;28;20258;-66
2024/01/28 12:11:56;;;;;;;4.20;3.23;;;;;8.90;102284.00;;;;5083192;28;20227;-67
2024/01/28 12:14:44;;;;;;;5.17;3.60;;;;;8.90;102270.00;;;;5075723;28;20231;-69
2024/01/28 12:17:35;;;;;;;6.90;3.67;;;;;9.10;102272.00;;;;5077734;28;20235;-68
2024/01/28 12:20:23;;;;;;;5.37;3.23;;;;;9.20;102269.00;;;;5082118;28;20243;-67
2024/01/28 12:23:10;;;;;;;3.27;2.67;;;;;9.30;102264.00;;;;5076415;28;20316;-67
2024/01/28 12:25:58;;;;;;;4.17;2.90;;;;;9.40;102265.00;;;;5083786;28;20701;-66
2024/01/28 12:28:46;;;;;;;3.50;2.87;;;;;9.50;102260.00;;;;5083777;27;20236;-68
2024/01/28 12:31:33;;;;;;;6.83;3.97;;;;;9.60;102259.00;;;;5081329;28;20726;-66
2024/01/28 12:34:19;;;;;;;5.07;3.40;;;;;9.60;102254.00;;;;5084357;28;20223;-69
2024/01/28 12:37:06;;;;;;;9.23;4.97;;;;;9.70;102251.00;;;;5083860;28;20227;-69
2024/01/28 12:39:52;;;;;;;6.90;4.53;;;;;9.70;102252.00;;;;5085849;28;20250;-68
2024/01/28 12:42:40;;;;;;;4.73;3.57;;;;;9.80;102241.00;;;;5081696;28;20231;-68
2024/01/28 12:45:27;;;;;;;4.30;2.90;;;;;9.90;102249.00;;;;5075610;28;20231;-68
2024/01/28 12:48:14;;;;;;;7.13;3.10;;;;;10.00;102244.00;;;;5083364;28;20232;-68
2024/01/28 12:51:00;;;;;;;4.40;2.87;;;;;10.00;102232.00;;;;5083458;28;20361;-66
2024/01/28 12:53:50;;;;;;;5.40;3.33;;;;;10.00;102224.00;;;;5082861;28;20711;-69
2024/01/28 12:56:37;;;;;;;7.03;3.20;;;;;10.00;102225.00;;;;5083705;28;20358;-67
2024/01/28 12:59:25;;;;;;;4.93;3.13;;;;;10.10;102224.00;;;;5081352;28;20745;-65
2024/01/28 13:02:12;;;;;;;4.67;3.53;;;;;10.10;102219.00;;;;5081212;28;20301;-65
2024/01/28 13:04:58;;;;;;;5.63;3.03;;;;;10.10;102227.00;;;;5085125;28;20329;-66
2024/01/28 13:07:45;;;;;;;7.03;2.80;;;;;10.10;102218.00;;;;5081127;28;20223;-68
2024/01/28 13:10:31;;;;;;;5.27;3.13;;;;;10.10;102224.00;;;;5077297;28;20290;-66
2024/01/28 13:13:19;;;;;;;3.13;2.77;;;;;9.90;102218.00;;;;5077201;28;20258;-65
2024/01/28 13:16:07;;;;;;;4.17;2.93;;;;;9.80;102208.00;;;;5083852;28;20256;-69
2024/01/28 13:18:53;;;;;;;5.00;2.80;;;;;9.70;102212.00;;;;5085239;28;20231;-68
2024/01/28 13:21:40;;;;;;;5.13;2.80;;;;;9.60;102192.00;;;;5081793;28;20251;-66
2024/01/28 13:24:26;;;;;;;2.83;2.50;;;;;9.60;102200.00;;;;5081020;28;20238;-66
2024/01/28 13:27:12;;;;;;;5.40;3.20;;;;;9.50;102202.00;;;;5080258;28;20221;-66
2024/01/28 13:29:58;;;;;;;3.47;2.60;;;;;9.50;102200.00;;;;5083701;27;20306;-67
2024/01/28 13:32:47;;;;;;;4.70;2.90;;;;;9.50;102196.00;;;;5083384;28;20604;-66
2024/01/28 13:35:33;;;;;;;5.10;3.23;;;;;9.50;102188.00;;;;5077306;28;20304;-66
2024/01/28 13:38:20;;;;;;;4.13;2.87;;;;;9.50;102191.00;;;;5084372;28;20804;-66
2024/01/28 13:41:06;;;;;;;4.57;2.63;;;;;9.40;102187.00;;;;5083506;28;20259;-67
2024/01/28 13:43:53;;;;;;;4.80;3.20;;;;;9.40;102180.00;;;;5084246;28;20357;-65
2024/01/28 13:46:39;;;;;;;5.40;3.27;;;;;9.50;102186.00;;;;5083701;28;20425;-66
2024/01/28 13:49:27;;;;;;;4.40;2.90;;;;;9.60;102174.00;;;;5081510;28;20663;-66
2024/01/28 13:52:13;;;;;;;6.10;3.40;;;;;9.70;102167.00;;;;5079778;28;20220;-68
2024/01/28 13:54:59;;;;;;;8.60;4.63;;;;;9.60;102177.00;;;;5084361;28;20289;-67